sensor_id;sensor_type;location;lat;lon;timestamp;P1;durP1;ratioP1;P2;durP2;ratioP2
36855;SDS011;22788;51.434;6.786;2022-12-29T00:01:31;1.03;;;0.97;;
36855;SDS011;22788;51.434;6.786;2022-12-29T00:03:57;0.83;;;0.80;;
36855;SDS011;22788;51.434;6.786;2022-12-29T00:06:23;1.10;;;1.00;;
36855;SDS011;22788;51.434;6.786;2022-12-29T00:08:50;1.20;;;1.10;;
36855;SDS011;22788;51.434;6.786;2022-12-29T00:11:16;1.00;;;0.90;;
36855;SDS011;22788;51.434;6.786;2022-12-29T00:13:44;1.20;;;1.10;;
36855;SDS011;22788;51.434;6.786;2022-12-29T00:16:10;1.43;;;1.00;;
36855;SDS011;22788;51.434;6.786;2022-12-29T00:18:37;1.00;;;1.00;;
36855;SDS011;22788;51.434;6.786;2022-12-29T00:21:03;1.10;;;1.00;;
36855;SDS011;22788;51.434;6.786;2022-12-29T00:23:30;1.07;;;0.90;;
36855;SDS011;22788;51.434;6.786;2022-12-29T00:25:56;1.30;;;1.20;;
36855;SDS011;22788;51.434;6.786;2022-12-29T00:28:22;0.90;;;0.90;;
36855;SDS011;22788;51.434;6.786;2022-12-29T00:30:48;0.87;;;0.87;;
36855;SDS011;22788;51.434;6.786;2022-12-29T00:33:14;0.80;;;0.80;;
36855;SDS011;22788;51.434;6.786;2022-12-29T00:35:44;0.80;;;0.80;;
36855;SDS011;22788;51.434;6.786;2022-12-29T00:38:16;1.20;;;1.10;;
36855;SDS011;22788;51.434;6.786;2022-12-29T00:40:42;1.00;;;0.90;;
36855;SDS011;22788;51.434;6.786;2022-12-29T00:43:08;3.00;;;0.90;;
36855;SDS011;22788;51.434;6.786;2022-12-29T00:45:34;1.20;;;1.10;;
36855;SDS011;22788;51.434;6.786;2022-12-29T00:48:00;2.50;;;1.00;;
36855;SDS011;22788;51.434;6.786;2022-12-29T00:50:26;2.83;;;0.83;;
36855;SDS011;22788;51.434;6.786;2022-12-29T00:52:53;1.23;;;0.90;;
36855;SDS011;22788;51.434;6.786;2022-12-29T00:55:19;1.13;;;1.00;;
36855;SDS011;22788;51.434;6.786;2022-12-29T00:57:46;1.27;;;0.90;;
36855;SDS011;22788;51.434;6.786;2022-12-29T01:00:12;0.87;;;0.87;;
36855;SDS011;22788;51.434;6.786;2022-12-29T01:02:38;1.43;;;0.90;;
36855;SDS011;22788;51.434;6.786;2022-12-29T01:05:05;0.83;;;0.83;;
36855;SDS011;22788;51.434;6.786;2022-12-29T01:07:31;1.00;;;0.80;;
36855;SDS011;22788;51.434;6.786;2022-12-29T01:09:58;1.07;;;1.00;;
36855;SDS011;22788;51.434;6.786;2022-12-29T01:12:24;0.93;;;0.90;;
36855;SDS011;22788;51.434;6.786;2022-12-29T01:14:50;1.33;;;1.00;;
36855;SDS011;22788;51.434;6.786;2022-12-29T01:17:16;1.03;;;1.03;;
36855;SDS011;22788;51.434;6.786;2022-12-29T01:19:42;1.00;;;1.00;;
36855;SDS011;22788;51.434;6.786;2022-12-29T01:22:08;1.37;;;1.00;;
36855;SDS011;22788;51.434;6.786;2022-12-29T01:24:34;0.87;;;0.83;;
36855;SDS011;22788;51.434;6.786;2022-12-29T01:27:02;0.63;;;0.63;;
36855;SDS011;22788;51.434;6.786;2022-12-29T01:29:28;4.07;;;0.90;;
36855;SDS011;22788;51.434;6.786;2022-12-29T01:31:54;0.80;;;0.80;;
36855;SDS011;22788;51.434;6.786;2022-12-29T01:34:20;1.03;;;0.80;;
36855;SDS011;22788;51.434;6.786;2022-12-29T01:36:46;0.80;;;0.70;;
36855;SDS011;22788;51.434;6.786;2022-12-29T01:39:12;0.80;;;0.80;;
36855;SDS011;22788;51.434;6.786;2022-12-29T01:41:38;1.00;;;0.90;;
36855;SDS011;22788;51.434;6.786;2022-12-29T01:47:05;0.70;;;0.70;;
36855;SDS011;22788;51.434;6.786;2022-12-29T01:49:33;0.93;;;0.87;;
36855;SDS011;22788;51.434;6.786;2022-12-29T01:52:00;0.80;;;0.80;;
36855;SDS011;22788;51.434;6.786;2022-12-29T01:54:30;1.10;;;0.80;;
36855;SDS011;22788;51.434;6.786;2022-12-29T01:57:01;0.80;;;0.80;;
36855;SDS011;22788;51.434;6.786;2022-12-29T01:59:33;1.20;;;0.73;;
36855;SDS011;22788;51.434;6.786;2022-12-29T02:02:02;1.23;;;0.77;;
36855;SDS011;22788;51.434;6.786;2022-12-29T02:04:31;0.70;;;0.70;;
36855;SDS011;22788;51.434;6.786;2022-12-29T02:07:00;1.60;;;0.97;;
36855;SDS011;22788;51.434;6.786;2022-12-29T02:09:29;1.23;;;0.80;;
36855;SDS011;22788;51.434;6.786;2022-12-29T02:11:56;1.27;;;0.70;;
36855;SDS011;22788;51.434;6.786;2022-12-29T02:14:23;0.80;;;0.80;;
36855;SDS011;22788;51.434;6.786;2022-12-29T02:16:55;0.70;;;0.70;;
36855;SDS011;22788;51.434;6.786;2022-12-29T02:19:39;0.70;;;0.70;;
36855;SDS011;22788;51.434;6.786;2022-12-29T02:22:32;1.87;;;0.80;;
36855;SDS011;22788;51.434;6.786;2022-12-29T02:25:17;2.03;;;0.83;;
36855;SDS011;22788;51.434;6.786;2022-12-29T02:28:22;1.20;;;0.83;;
36855;SDS011;22788;51.434;6.786;2022-12-29T02:31:09;1.00;;;0.80;;
36855;SDS011;22788;51.434;6.786;2022-12-29T02:33:48;0.97;;;0.87;;
36855;SDS011;22788;51.434;6.786;2022-12-29T02:36:24;0.60;;;0.60;;
36855;SDS011;22788;51.434;6.786;2022-12-29T02:39:02;1.20;;;0.93;;
36855;SDS011;22788;51.434;6.786;2022-12-29T02:41:33;1.53;;;1.17;;
36855;SDS011;22788;51.434;6.786;2022-12-29T02:44:07;0.80;;;0.80;;
36855;SDS011;22788;51.434;6.786;2022-12-29T02:46:43;0.80;;;0.80;;
36855;SDS011;22788;51.434;6.786;2022-12-29T02:49:13;1.43;;;0.67;;
36855;SDS011;22788;51.434;6.786;2022-12-29T02:51:46;1.70;;;0.93;;
36855;SDS011;22788;51.434;6.786;2022-12-29T02:54:16;1.17;;;0.93;;
36855;SDS011;22788;51.434;6.786;2022-12-29T02:56:44;1.23;;;1.13;;
36855;SDS011;22788;51.434;6.786;2022-12-29T02:59:10;2.33;;;1.30;;
36855;SDS011;22788;51.434;6.786;2022-12-29T03:01:40;1.20;;;1.10;;
36855;SDS011;22788;51.434;6.786;2022-12-29T03:04:23;1.00;;;0.90;;
36855;SDS011;22788;51.434;6.786;2022-12-29T03:06:56;2.00;;;1.20;;
36855;SDS011;22788;51.434;6.786;2022-12-29T03:09:35;1.60;;;1.47;;
36855;SDS011;22788;51.434;6.786;2022-12-29T03:12:07;3.17;;;1.20;;
36855;SDS011;22788;51.434;6.786;2022-12-29T03:14:46;1.70;;;1.10;;
36855;SDS011;22788;51.434;6.786;2022-12-29T03:17:24;3.83;;;2.90;;
36855;SDS011;22788;51.434;6.786;2022-12-29T03:19:54;1.00;;;0.90;;
36855;SDS011;22788;51.434;6.786;2022-12-29T03:22:29;1.17;;;1.07;;
36855;SDS011;22788;51.434;6.786;2022-12-29T03:25:01;1.10;;;1.00;;
36855;SDS011;22788;51.434;6.786;2022-12-29T03:27:31;1.93;;;1.10;;
36855;SDS011;22788;51.434;6.786;2022-12-29T03:30:00;1.37;;;1.07;;
36855;SDS011;22788;51.434;6.786;2022-12-29T03:32:32;1.47;;;1.00;;
36855;SDS011;22788;51.434;6.786;2022-12-29T03:35:02;1.77;;;1.00;;
36855;SDS011;22788;51.434;6.786;2022-12-29T03:37:30;1.00;;;0.90;;
36855;SDS011;22788;51.434;6.786;2022-12-29T03:40:00;1.07;;;0.97;;
36855;SDS011;22788;51.434;6.786;2022-12-29T03:42:27;1.13;;;0.83;;
36855;SDS011;22788;51.434;6.786;2022-12-29T03:44:56;1.13;;;1.03;;
36855;SDS011;22788;51.434;6.786;2022-12-29T03:47:22;0.90;;;0.90;;
36855;SDS011;22788;51.434;6.786;2022-12-29T03:49:50;1.87;;;1.10;;
36855;SDS011;22788;51.434;6.786;2022-12-29T03:52:17;1.10;;;1.00;;
36855;SDS011;22788;51.434;6.786;2022-12-29T03:54:43;1.60;;;1.17;;
36855;SDS011;22788;51.434;6.786;2022-12-29T03:57:09;1.20;;;0.80;;
36855;SDS011;22788;51.434;6.786;2022-12-29T03:59:36;1.00;;;0.90;;
36855;SDS011;22788;51.434;6.786;2022-12-29T04:02:02;1.30;;;0.90;;
36855;SDS011;22788;51.434;6.786;2022-12-29T04:04:28;1.53;;;1.10;;
36855;SDS011;22788;51.434;6.786;2022-12-29T04:06:56;2.00;;;1.10;;
36855;SDS011;22788;51.434;6.786;2022-12-29T04:09:22;1.20;;;0.93;;
36855;SDS011;22788;51.434;6.786;2022-12-29T04:11:48;1.07;;;0.90;;
36855;SDS011;22788;51.434;6.786;2022-12-29T04:14:14;0.77;;;0.77;;
36855;SDS011;22788;51.434;6.786;2022-12-29T04:16:40;1.60;;;0.80;;
36855;SDS011;22788;51.434;6.786;2022-12-29T04:19:06;1.77;;;0.83;;
36855;SDS011;22788;51.434;6.786;2022-12-29T04:21:33;0.93;;;0.90;;
36855;SDS011;22788;51.434;6.786;2022-12-29T04:24:00;0.73;;;0.70;;
36855;SDS011;22788;51.434;6.786;2022-12-29T04:26:26;0.70;;;0.70;;
36855;SDS011;22788;51.434;6.786;2022-12-29T04:28:52;1.67;;;0.90;;
36855;SDS011;22788;51.434;6.786;2022-12-29T04:31:18;0.80;;;0.80;;
36855;SDS011;22788;51.434;6.786;2022-12-29T04:33:44;0.73;;;0.63;;
36855;SDS011;22788;51.434;6.786;2022-12-29T04:36:10;1.70;;;0.80;;
36855;SDS011;22788;51.434;6.786;2022-12-29T04:38:36;1.20;;;1.07;;
36855;SDS011;22788;51.434;6.786;2022-12-29T04:41:04;3.43;;;1.10;;
36855;SDS011;22788;51.434;6.786;2022-12-29T04:43:30;1.13;;;1.03;;
36855;SDS011;22788;51.434;6.786;2022-12-29T04:45:56;2.30;;;0.80;;
36855;SDS011;22788;51.434;6.786;2022-12-29T04:48:22;1.10;;;1.00;;
36855;SDS011;22788;51.434;6.786;2022-12-29T04:50:49;2.53;;;1.20;;
36855;SDS011;22788;51.434;6.786;2022-12-29T04:53:15;2.10;;;1.20;;
36855;SDS011;22788;51.434;6.786;2022-12-29T04:55:42;2.73;;;1.20;;
36855;SDS011;22788;51.434;6.786;2022-12-29T04:58:09;1.83;;;1.30;;
36855;SDS011;22788;51.434;6.786;2022-12-29T05:00:35;1.30;;;1.20;;
36855;SDS011;22788;51.434;6.786;2022-12-29T05:03:01;1.33;;;1.23;;
36855;SDS011;22788;51.434;6.786;2022-12-29T05:05:27;1.53;;;1.17;;
36855;SDS011;22788;51.434;6.786;2022-12-29T05:07:53;1.17;;;0.83;;
36855;SDS011;22788;51.434;6.786;2022-12-29T05:10:19;2.83;;;0.90;;
36855;SDS011;22788;51.434;6.786;2022-12-29T05:12:45;3.47;;;1.30;;
36855;SDS011;22788;51.434;6.786;2022-12-29T05:15:13;1.23;;;0.90;;
36855;SDS011;22788;51.434;6.786;2022-12-29T05:17:39;3.23;;;1.13;;
36855;SDS011;22788;51.434;6.786;2022-12-29T05:20:06;1.80;;;1.00;;
36855;SDS011;22788;51.434;6.786;2022-12-29T05:22:33;2.07;;;0.90;;
36855;SDS011;22788;51.434;6.786;2022-12-29T05:24:59;1.93;;;1.20;;
36855;SDS011;22788;51.434;6.786;2022-12-29T05:27:25;3.10;;;0.87;;
36855;SDS011;22788;51.434;6.786;2022-12-29T05:29:51;0.70;;;0.70;;
36855;SDS011;22788;51.434;6.786;2022-12-29T05:32:18;1.20;;;0.93;;
36855;SDS011;22788;51.434;6.786;2022-12-29T05:34:44;1.37;;;0.90;;
36855;SDS011;22788;51.434;6.786;2022-12-29T05:37:10;2.30;;;0.80;;
36855;SDS011;22788;51.434;6.786;2022-12-29T05:39:36;1.43;;;1.10;;
36855;SDS011;22788;51.434;6.786;2022-12-29T05:42:03;1.27;;;0.73;;
36855;SDS011;22788;51.434;6.786;2022-12-29T05:44:29;1.10;;;0.67;;
36855;SDS011;22788;51.434;6.786;2022-12-29T05:46:55;2.53;;;1.27;;
36855;SDS011;22788;51.434;6.786;2022-12-29T05:49:22;1.90;;;1.00;;
36855;SDS011;22788;51.434;6.786;2022-12-29T05:51:48;0.83;;;0.70;;
36855;SDS011;22788;51.434;6.786;2022-12-29T05:54:14;3.87;;;1.00;;
36855;SDS011;22788;51.434;6.786;2022-12-29T05:56:40;0.77;;;0.77;;
36855;SDS011;22788;51.434;6.786;2022-12-29T05:59:06;1.33;;;0.90;;
36855;SDS011;22788;51.434;6.786;2022-12-29T06:01:32;1.00;;;0.87;;
36855;SDS011;22788;51.434;6.786;2022-12-29T06:03:58;1.87;;;1.07;;
36855;SDS011;22788;51.434;6.786;2022-12-29T06:06:26;1.20;;;0.93;;
36855;SDS011;22788;51.434;6.786;2022-12-29T06:08:52;1.17;;;0.80;;
36855;SDS011;22788;51.434;6.786;2022-12-29T06:11:18;1.83;;;1.17;;
36855;SDS011;22788;51.434;6.786;2022-12-29T06:13:44;1.47;;;1.00;;
36855;SDS011;22788;51.434;6.786;2022-12-29T06:16:10;2.00;;;0.93;;
36855;SDS011;22788;51.434;6.786;2022-12-29T06:18:36;1.40;;;0.80;;
36855;SDS011;22788;51.434;6.786;2022-12-29T06:21:03;1.37;;;1.00;;
36855;SDS011;22788;51.434;6.786;2022-12-29T06:23:31;1.13;;;0.83;;
36855;SDS011;22788;51.434;6.786;2022-12-29T06:25:58;0.83;;;0.83;;
36855;SDS011;22788;51.434;6.786;2022-12-29T06:28:24;1.50;;;0.90;;
36855;SDS011;22788;51.434;6.786;2022-12-29T06:30:50;2.47;;;0.80;;
36855;SDS011;22788;51.434;6.786;2022-12-29T06:33:16;1.33;;;1.00;;
36855;SDS011;22788;51.434;6.786;2022-12-29T06:35:42;2.47;;;1.10;;
36855;SDS011;22788;51.434;6.786;2022-12-29T06:38:08;3.43;;;1.20;;
36855;SDS011;22788;51.434;6.786;2022-12-29T06:40:36;1.20;;;1.00;;
36855;SDS011;22788;51.434;6.786;2022-12-29T06:43:02;2.37;;;1.10;;
36855;SDS011;22788;51.434;6.786;2022-12-29T06:45:28;1.60;;;0.97;;
36855;SDS011;22788;51.434;6.786;2022-12-29T06:47:54;1.37;;;1.03;;
36855;SDS011;22788;51.434;6.786;2022-12-29T06:50:20;2.20;;;1.00;;
36855;SDS011;22788;51.434;6.786;2022-12-29T06:52:46;2.20;;;1.10;;
36855;SDS011;22788;51.434;6.786;2022-12-29T06:55:12;3.67;;;0.80;;
36855;SDS011;22788;51.434;6.786;2022-12-29T06:57:39;1.37;;;1.00;;
36855;SDS011;22788;51.434;6.786;2022-12-29T07:00:06;1.10;;;1.00;;
36855;SDS011;22788;51.434;6.786;2022-12-29T07:02:33;1.43;;;1.00;;
36855;SDS011;22788;51.434;6.786;2022-12-29T07:04:59;1.20;;;1.00;;
36855;SDS011;22788;51.434;6.786;2022-12-29T07:07:25;1.40;;;0.83;;
36855;SDS011;22788;51.434;6.786;2022-12-29T07:09:51;2.67;;;0.90;;
36855;SDS011;22788;51.434;6.786;2022-12-29T07:12:17;1.93;;;1.20;;
36855;SDS011;22788;51.434;6.786;2022-12-29T07:14:44;2.63;;;0.87;;
36855;SDS011;22788;51.434;6.786;2022-12-29T07:17:11;1.83;;;1.30;;
36855;SDS011;22788;51.434;6.786;2022-12-29T07:19:37;3.60;;;1.10;;
36855;SDS011;22788;51.434;6.786;2022-12-29T07:22:03;3.97;;;1.20;;
36855;SDS011;22788;51.434;6.786;2022-12-29T07:24:29;1.10;;;1.00;;
36855;SDS011;22788;51.434;6.786;2022-12-29T07:26:55;1.40;;;1.17;;
36855;SDS011;22788;51.434;6.786;2022-12-29T07:29:21;1.37;;;0.80;;
36855;SDS011;22788;51.434;6.786;2022-12-29T07:31:48;1.80;;;1.10;;
36855;SDS011;22788;51.434;6.786;2022-12-29T07:34:14;2.07;;;1.10;;
36855;SDS011;22788;51.434;6.786;2022-12-29T07:36:40;2.77;;;0.80;;
36855;SDS011;22788;51.434;6.786;2022-12-29T07:39:06;1.17;;;1.07;;
36855;SDS011;22788;51.434;6.786;2022-12-29T07:41:33;5.27;;;1.10;;
36855;SDS011;22788;51.434;6.786;2022-12-29T07:43:59;2.20;;;1.17;;
36855;SDS011;22788;51.434;6.786;2022-12-29T07:46:25;3.53;;;1.03;;
36855;SDS011;22788;51.434;6.786;2022-12-29T07:48:52;2.83;;;1.43;;
36855;SDS011;22788;51.434;6.786;2022-12-29T07:51:18;3.43;;;1.20;;
36855;SDS011;22788;51.434;6.786;2022-12-29T07:53:44;7.40;;;1.43;;
36855;SDS011;22788;51.434;6.786;2022-12-29T07:56:10;3.30;;;1.13;;
36855;SDS011;22788;51.434;6.786;2022-12-29T07:58:36;5.80;;;1.10;;
36855;SDS011;22788;51.434;6.786;2022-12-29T08:01:02;2.43;;;1.20;;
36855;SDS011;22788;51.434;6.786;2022-12-29T08:03:28;2.30;;;1.10;;
36855;SDS011;22788;51.434;6.786;2022-12-29T08:05:57;3.70;;;1.27;;
36855;SDS011;22788;51.434;6.786;2022-12-29T08:08:23;1.47;;;1.00;;
36855;SDS011;22788;51.434;6.786;2022-12-29T08:10:49;3.20;;;1.40;;
36855;SDS011;22788;51.434;6.786;2022-12-29T08:13:15;6.57;;;1.73;;
36855;SDS011;22788;51.434;6.786;2022-12-29T08:15:41;4.30;;;1.20;;
36855;SDS011;22788;51.434;6.786;2022-12-29T08:18:07;1.03;;;0.93;;
36855;SDS011;22788;51.434;6.786;2022-12-29T08:20:33;4.47;;;1.30;;
36855;SDS011;22788;51.434;6.786;2022-12-29T08:23:01;2.13;;;1.07;;
36855;SDS011;22788;51.434;6.786;2022-12-29T08:25:27;4.77;;;1.10;;
36855;SDS011;22788;51.434;6.786;2022-12-29T08:27:53;5.53;;;1.13;;
36855;SDS011;22788;51.434;6.786;2022-12-29T08:30:19;2.20;;;1.20;;
36855;SDS011;22788;51.434;6.786;2022-12-29T08:32:45;3.93;;;1.20;;
36855;SDS011;22788;51.434;6.786;2022-12-29T08:35:11;4.23;;;1.47;;
36855;SDS011;22788;51.434;6.786;2022-12-29T08:37:37;4.90;;;1.10;;
36855;SDS011;22788;51.434;6.786;2022-12-29T08:40:05;4.07;;;1.00;;
36855;SDS011;22788;51.434;6.786;2022-12-29T08:42:32;1.17;;;0.87;;
36855;SDS011;22788;51.434;6.786;2022-12-29T08:44:58;2.93;;;1.43;;
36855;SDS011;22788;51.434;6.786;2022-12-29T08:47:25;3.63;;;0.97;;
36855;SDS011;22788;51.434;6.786;2022-12-29T08:49:51;4.43;;;1.00;;
36855;SDS011;22788;51.434;6.786;2022-12-29T08:52:17;4.23;;;1.40;;
36855;SDS011;22788;51.434;6.786;2022-12-29T08:54:44;2.73;;;1.33;;
36855;SDS011;22788;51.434;6.786;2022-12-29T08:57:11;5.17;;;1.50;;
36855;SDS011;22788;51.434;6.786;2022-12-29T08:59:37;4.10;;;1.20;;
36855;SDS011;22788;51.434;6.786;2022-12-29T09:02:03;6.20;;;1.53;;
36855;SDS011;22788;51.434;6.786;2022-12-29T09:04:29;3.50;;;1.20;;
36855;SDS011;22788;51.434;6.786;2022-12-29T09:06:55;6.13;;;1.23;;
36855;SDS011;22788;51.434;6.786;2022-12-29T09:09:21;3.40;;;1.07;;
36855;SDS011;22788;51.434;6.786;2022-12-29T09:11:47;2.53;;;1.00;;
36855;SDS011;22788;51.434;6.786;2022-12-29T09:14:15;3.87;;;1.10;;
36855;SDS011;22788;51.434;6.786;2022-12-29T09:16:41;4.57;;;1.13;;
36855;SDS011;22788;51.434;6.786;2022-12-29T09:19:07;3.90;;;1.33;;
36855;SDS011;22788;51.434;6.786;2022-12-29T09:21:33;5.87;;;1.73;;
36855;SDS011;22788;51.434;6.786;2022-12-29T09:23:59;6.00;;;1.20;;
36855;SDS011;22788;51.434;6.786;2022-12-29T09:26:25;1.70;;;1.20;;
36855;SDS011;22788;51.434;6.786;2022-12-29T09:28:51;1.50;;;1.27;;
36855;SDS011;22788;51.434;6.786;2022-12-29T09:31:19;3.60;;;1.20;;
36855;SDS011;22788;51.434;6.786;2022-12-29T09:33:45;4.17;;;1.13;;
36855;SDS011;22788;51.434;6.786;2022-12-29T09:36:11;5.00;;;1.37;;
36855;SDS011;22788;51.434;6.786;2022-12-29T09:38:37;7.03;;;1.33;;
36855;SDS011;22788;51.434;6.786;2022-12-29T09:41:05;4.47;;;1.20;;
36855;SDS011;22788;51.434;6.786;2022-12-29T09:43:45;4.17;;;1.60;;
36855;SDS011;22788;51.434;6.786;2022-12-29T09:46:21;3.40;;;1.37;;
36855;SDS011;22788;51.434;6.786;2022-12-29T09:48:51;4.00;;;1.30;;
36855;SDS011;22788;51.434;6.786;2022-12-29T09:51:23;4.23;;;1.30;;
36855;SDS011;22788;51.434;6.786;2022-12-29T09:53:51;5.20;;;1.60;;
36855;SDS011;22788;51.434;6.786;2022-12-29T09:56:22;3.70;;;1.27;;
36855;SDS011;22788;51.434;6.786;2022-12-29T09:58:50;4.97;;;1.63;;
36855;SDS011;22788;51.434;6.786;2022-12-29T10:01:23;3.23;;;1.33;;
36855;SDS011;22788;51.434;6.786;2022-12-29T10:03:55;5.40;;;1.20;;
36855;SDS011;22788;51.434;6.786;2022-12-29T10:06:24;3.93;;;1.50;;
36855;SDS011;22788;51.434;6.786;2022-12-29T10:08:55;3.77;;;1.20;;
36855;SDS011;22788;51.434;6.786;2022-12-29T10:11:29;3.50;;;1.50;;
36855;SDS011;22788;51.434;6.786;2022-12-29T10:14:17;6.27;;;1.23;;
36855;SDS011;22788;51.434;6.786;2022-12-29T10:17:00;4.30;;;1.10;;
36855;SDS011;22788;51.434;6.786;2022-12-29T10:19:39;6.20;;;2.10;;
36855;SDS011;22788;51.434;6.786;2022-12-29T10:22:21;4.60;;;1.50;;
36855;SDS011;22788;51.434;6.786;2022-12-29T10:24:57;6.97;;;1.73;;
36855;SDS011;22788;51.434;6.786;2022-12-29T10:27:26;5.67;;;1.30;;
36855;SDS011;22788;51.434;6.786;2022-12-29T10:29:53;5.17;;;1.50;;
36855;SDS011;22788;51.434;6.786;2022-12-29T10:32:25;3.77;;;1.10;;
36855;SDS011;22788;51.434;6.786;2022-12-29T10:34:55;6.13;;;1.57;;
36855;SDS011;22788;51.434;6.786;2022-12-29T10:37:29;4.73;;;1.90;;
36855;SDS011;22788;51.434;6.786;2022-12-29T10:40:00;2.70;;;1.27;;
36855;SDS011;22788;51.434;6.786;2022-12-29T10:42:39;4.40;;;1.63;;
36855;SDS011;22788;51.434;6.786;2022-12-29T10:45:10;4.40;;;1.80;;
36855;SDS011;22788;51.434;6.786;2022-12-29T10:47:42;4.30;;;1.30;;
36855;SDS011;22788;51.434;6.786;2022-12-29T10:50:17;6.07;;;1.73;;
36855;SDS011;22788;51.434;6.786;2022-12-29T10:52:44;4.67;;;1.33;;
36855;SDS011;22788;51.434;6.786;2022-12-29T10:55:12;4.43;;;1.50;;
36855;SDS011;22788;51.434;6.786;2022-12-29T10:57:41;3.73;;;1.20;;
36855;SDS011;22788;51.434;6.786;2022-12-29T11:00:11;4.13;;;1.30;;
36855;SDS011;22788;51.434;6.786;2022-12-29T11:02:49;6.67;;;1.23;;
36855;SDS011;22788;51.434;6.786;2022-12-29T11:05:36;5.57;;;1.60;;
36855;SDS011;22788;51.434;6.786;2022-12-29T11:08:08;4.37;;;1.40;;
36855;SDS011;22788;51.434;6.786;2022-12-29T11:10:36;7.23;;;1.80;;
36855;SDS011;22788;51.434;6.786;2022-12-29T11:13:04;2.77;;;1.33;;
36855;SDS011;22788;51.434;6.786;2022-12-29T11:15:40;5.00;;;1.63;;
36855;SDS011;22788;51.434;6.786;2022-12-29T11:18:18;4.27;;;1.27;;
36855;SDS011;22788;51.434;6.786;2022-12-29T11:20:47;5.87;;;1.37;;
36855;SDS011;22788;51.434;6.786;2022-12-29T11:23:22;8.53;;;2.03;;
36855;SDS011;22788;51.434;6.786;2022-12-29T11:28:33;4.03;;;1.40;;
36855;SDS011;22788;51.434;6.786;2022-12-29T11:31:00;8.43;;;2.07;;
36855;SDS011;22788;51.434;6.786;2022-12-29T11:33:29;7.83;;;1.60;;
36855;SDS011;22788;51.434;6.786;2022-12-29T11:35:57;5.07;;;1.37;;
36855;SDS011;22788;51.434;6.786;2022-12-29T11:38:25;7.17;;;1.70;;
36855;SDS011;22788;51.434;6.786;2022-12-29T11:40:59;1.80;;;0.97;;
36855;SDS011;22788;51.434;6.786;2022-12-29T11:43:29;6.47;;;2.20;;
36855;SDS011;22788;51.434;6.786;2022-12-29T11:45:57;6.43;;;1.33;;
36855;SDS011;22788;51.434;6.786;2022-12-29T11:48:23;5.83;;;1.70;;
36855;SDS011;22788;51.434;6.786;2022-12-29T11:50:55;6.93;;;1.57;;
36855;SDS011;22788;51.434;6.786;2022-12-29T11:53:24;6.03;;;1.37;;
36855;SDS011;22788;51.434;6.786;2022-12-29T11:55:53;5.17;;;1.30;;
36855;SDS011;22788;51.434;6.786;2022-12-29T11:58:27;4.77;;;1.47;;
36855;SDS011;22788;51.434;6.786;2022-12-29T12:00:54;9.57;;;2.40;;
36855;SDS011;22788;51.434;6.786;2022-12-29T12:03:22;3.90;;;1.67;;
36855;SDS011;22788;51.434;6.786;2022-12-29T12:05:52;4.17;;;1.97;;
36855;SDS011;22788;51.434;6.786;2022-12-29T12:08:26;6.63;;;1.70;;
36855;SDS011;22788;51.434;6.786;2022-12-29T12:11:01;5.83;;;1.80;;
36855;SDS011;22788;51.434;6.786;2022-12-29T12:13:34;5.23;;;2.00;;
36855;SDS011;22788;51.434;6.786;2022-12-29T12:16:06;6.30;;;1.37;;
36855;SDS011;22788;51.434;6.786;2022-12-29T12:18:37;5.50;;;1.60;;
36855;SDS011;22788;51.434;6.786;2022-12-29T12:23:58;6.90;;;1.73;;
36855;SDS011;22788;51.434;6.786;2022-12-29T12:26:34;9.40;;;1.70;;
36855;SDS011;22788;51.434;6.786;2022-12-29T12:29:07;5.80;;;1.53;;
36855;SDS011;22788;51.434;6.786;2022-12-29T12:31:41;3.53;;;1.20;;
36855;SDS011;22788;51.434;6.786;2022-12-29T12:34:13;7.13;;;1.80;;
36855;SDS011;22788;51.434;6.786;2022-12-29T12:39:41;7.17;;;1.70;;
36855;SDS011;22788;51.434;6.786;2022-12-29T12:42:19;5.50;;;1.70;;
36855;SDS011;22788;51.434;6.786;2022-12-29T12:44:54;6.03;;;1.53;;
36855;SDS011;22788;51.434;6.786;2022-12-29T12:47:41;6.47;;;1.87;;
36855;SDS011;22788;51.434;6.786;2022-12-29T12:50:24;6.60;;;1.97;;
36855;SDS011;22788;51.434;6.786;2022-12-29T12:53:04;7.17;;;1.63;;
36855;SDS011;22788;51.434;6.786;2022-12-29T12:55:47;2.80;;;1.20;;
36855;SDS011;22788;51.434;6.786;2022-12-29T12:58:27;2.87;;;1.70;;
36855;SDS011;22788;51.434;6.786;2022-12-29T13:01:06;6.13;;;1.27;;
36855;SDS011;22788;51.434;6.786;2022-12-29T13:03:52;5.70;;;2.00;;
36855;SDS011;22788;51.434;6.786;2022-12-29T13:06:31;6.50;;;1.70;;
36855;SDS011;22788;51.434;6.786;2022-12-29T13:09:14;8.90;;;1.73;;
36855;SDS011;22788;51.434;6.786;2022-12-29T13:12:00;8.83;;;1.83;;
36855;SDS011;22788;51.434;6.786;2022-12-29T13:14:42;6.13;;;1.67;;
36855;SDS011;22788;51.434;6.786;2022-12-29T13:17:24;4.20;;;1.40;;
36855;SDS011;22788;51.434;6.786;2022-12-29T13:19:56;8.63;;;1.60;;
36855;SDS011;22788;51.434;6.786;2022-12-29T13:22:32;5.57;;;1.90;;
36855;SDS011;22788;51.434;6.786;2022-12-29T13:25:12;4.90;;;1.73;;
36855;SDS011;22788;51.434;6.786;2022-12-29T13:27:49;4.20;;;1.60;;
36855;SDS011;22788;51.434;6.786;2022-12-29T13:30:20;7.00;;;1.67;;
36855;SDS011;22788;51.434;6.786;2022-12-29T13:32:53;6.67;;;1.50;;
36855;SDS011;22788;51.434;6.786;2022-12-29T13:35:31;5.63;;;1.80;;
36855;SDS011;22788;51.434;6.786;2022-12-29T13:38:10;4.63;;;1.43;;
36855;SDS011;22788;51.434;6.786;2022-12-29T13:40:40;5.87;;;1.40;;
36855;SDS011;22788;51.434;6.786;2022-12-29T13:43:12;2.20;;;1.43;;
36855;SDS011;22788;51.434;6.786;2022-12-29T13:45:39;3.97;;;1.47;;
36855;SDS011;22788;51.434;6.786;2022-12-29T13:48:06;7.03;;;1.70;;
36855;SDS011;22788;51.434;6.786;2022-12-29T13:50:40;5.07;;;1.53;;
36855;SDS011;22788;51.434;6.786;2022-12-29T13:53:10;3.70;;;1.20;;
36855;SDS011;22788;51.434;6.786;2022-12-29T13:55:45;5.13;;;1.90;;
36855;SDS011;22788;51.434;6.786;2022-12-29T13:58:20;6.63;;;2.00;;
36855;SDS011;22788;51.434;6.786;2022-12-29T14:00:53;3.93;;;1.30;;
36855;SDS011;22788;51.434;6.786;2022-12-29T14:03:34;7.73;;;1.83;;
36855;SDS011;22788;51.434;6.786;2022-12-29T14:06:12;4.83;;;1.43;;
36855;SDS011;22788;51.434;6.786;2022-12-29T14:08:40;8.17;;;1.73;;
36855;SDS011;22788;51.434;6.786;2022-12-29T14:11:07;4.83;;;1.70;;
36855;SDS011;22788;51.434;6.786;2022-12-29T14:13:38;5.80;;;2.10;;
36855;SDS011;22788;51.434;6.786;2022-12-29T14:16:06;4.43;;;1.63;;
36855;SDS011;22788;51.434;6.786;2022-12-29T14:18:41;5.80;;;1.73;;
36855;SDS011;22788;51.434;6.786;2022-12-29T14:21:09;2.23;;;1.10;;
36855;SDS011;22788;51.434;6.786;2022-12-29T14:23:43;4.23;;;1.30;;
36855;SDS011;22788;51.434;6.786;2022-12-29T14:26:15;3.50;;;1.60;;
36855;SDS011;22788;51.434;6.786;2022-12-29T14:28:44;4.97;;;1.83;;
36855;SDS011;22788;51.434;6.786;2022-12-29T14:34:15;3.00;;;1.40;;
36855;SDS011;22788;51.434;6.786;2022-12-29T14:36:52;5.90;;;1.67;;
36855;SDS011;22788;51.434;6.786;2022-12-29T14:39:28;8.17;;;2.10;;
36855;SDS011;22788;51.434;6.786;2022-12-29T14:41:59;7.63;;;1.93;;
36855;SDS011;22788;51.434;6.786;2022-12-29T14:44:27;3.57;;;1.80;;
36855;SDS011;22788;51.434;6.786;2022-12-29T14:46:55;11.43;;;1.40;;
36855;SDS011;22788;51.434;6.786;2022-12-29T14:49:24;5.47;;;1.77;;
36855;SDS011;22788;51.434;6.786;2022-12-29T14:51:53;6.63;;;1.93;;
36855;SDS011;22788;51.434;6.786;2022-12-29T14:54:45;6.97;;;1.40;;
36855;SDS011;22788;51.434;6.786;2022-12-29T14:57:15;6.90;;;1.90;;
36855;SDS011;22788;51.434;6.786;2022-12-29T14:59:54;2.50;;;1.43;;
36855;SDS011;22788;51.434;6.786;2022-12-29T15:02:24;5.20;;;1.70;;
36855;SDS011;22788;51.434;6.786;2022-12-29T15:04:58;5.00;;;1.97;;
36855;SDS011;22788;51.434;6.786;2022-12-29T15:07:26;3.67;;;1.50;;
36855;SDS011;22788;51.434;6.786;2022-12-29T15:09:54;4.97;;;1.60;;
36855;SDS011;22788;51.434;6.786;2022-12-29T15:12:29;2.73;;;1.30;;
36855;SDS011;22788;51.434;6.786;2022-12-29T15:15:10;3.97;;;1.83;;
36855;SDS011;22788;51.434;6.786;2022-12-29T15:17:43;5.20;;;1.90;;